sensor_id;sensor_type;location;lat;lon;timestamp;P1;durP1;ratioP1;P2;durP2;ratioP2
2866;SDS011;1441;48.886;8.728;2022-12-13T00:00:10;11.60;;;7.00;;
2866;SDS011;1441;48.886;8.728;2022-12-13T00:02:40;12.20;;;6.90;;
2866;SDS011;1441;48.886;8.728;2022-12-13T00:05:06;15.13;;;7.27;;
2866;SDS011;1441;48.886;8.728;2022-12-13T00:07:32;13.30;;;7.20;;
2866;SDS011;1441;48.886;8.728;2022-12-13T00:09:58;11.03;;;6.43;;
2866;SDS011;1441;48.886;8.728;2022-12-13T00:12:24;10.30;;;7.03;;
2866;SDS011;1441;48.886;8.728;2022-12-13T00:14:50;12.40;;;7.20;;
2866;SDS011;1441;48.886;8.728;2022-12-13T00:17:15;12.07;;;6.73;;
2866;SDS011;1441;48.886;8.728;2022-12-13T00:19:41;15.33;;;7.70;;
2866;SDS011;1441;48.886;8.728;2022-12-13T00:22:06;14.70;;;6.53;;
2866;SDS011;1441;48.886;8.728;2022-12-13T00:24:32;15.73;;;7.87;;
2866;SDS011;1441;48.886;8.728;2022-12-13T00:26:57;11.83;;;7.30;;
2866;SDS011;1441;48.886;8.728;2022-12-13T00:29:23;16.27;;;7.90;;
2866;SDS011;1441;48.886;8.728;2022-12-13T00:31:49;18.00;;;7.63;;
2866;SDS011;1441;48.886;8.728;2022-12-13T00:34:15;12.50;;;7.77;;
2866;SDS011;1441;48.886;8.728;2022-12-13T00:36:40;15.80;;;8.40;;
2866;SDS011;1441;48.886;8.728;2022-12-13T00:39:06;24.07;;;8.23;;
2866;SDS011;1441;48.886;8.728;2022-12-13T00:41:32;15.80;;;8.23;;
2866;SDS011;1441;48.886;8.728;2022-12-13T00:43:59;13.60;;;7.77;;
2866;SDS011;1441;48.886;8.728;2022-12-13T00:46:27;17.93;;;8.77;;
2866;SDS011;1441;48.886;8.728;2022-12-13T00:48:54;15.23;;;8.57;;
2866;SDS011;1441;48.886;8.728;2022-12-13T00:51:22;11.30;;;7.17;;
2866;SDS011;1441;48.886;8.728;2022-12-13T00:53:48;15.27;;;7.50;;
2866;SDS011;1441;48.886;8.728;2022-12-13T00:56:16;16.67;;;8.17;;
2866;SDS011;1441;48.886;8.728;2022-12-13T00:58:45;17.60;;;8.17;;
2866;SDS011;1441;48.886;8.728;2022-12-13T01:01:12;13.27;;;8.37;;
2866;SDS011;1441;48.886;8.728;2022-12-13T01:03:38;18.90;;;8.67;;
2866;SDS011;1441;48.886;8.728;2022-12-13T01:06:11;17.07;;;9.40;;
2866;SDS011;1441;48.886;8.728;2022-12-13T01:08:39;16.70;;;8.73;;
2866;SDS011;1441;48.886;8.728;2022-12-13T01:11:05;17.63;;;8.70;;
2866;SDS011;1441;48.886;8.728;2022-12-13T01:13:31;12.60;;;8.27;;
2866;SDS011;1441;48.886;8.728;2022-12-13T01:15:57;17.20;;;9.63;;
2866;SDS011;1441;48.886;8.728;2022-12-13T01:18:25;18.40;;;8.67;;
2866;SDS011;1441;48.886;8.728;2022-12-13T01:21:04;18.10;;;10.37;;
2866;SDS011;1441;48.886;8.728;2022-12-13T01:23:31;15.47;;;9.90;;
2866;SDS011;1441;48.886;8.728;2022-12-13T01:25:58;16.00;;;8.57;;
2866;SDS011;1441;48.886;8.728;2022-12-13T01:28:28;16.53;;;9.10;;
2866;SDS011;1441;48.886;8.728;2022-12-13T01:30:57;16.50;;;9.53;;
2866;SDS011;1441;48.886;8.728;2022-12-13T01:33:25;17.93;;;9.77;;
2866;SDS011;1441;48.886;8.728;2022-12-13T01:35:51;16.53;;;10.00;;
2866;SDS011;1441;48.886;8.728;2022-12-13T01:38:17;19.93;;;9.40;;
2866;SDS011;1441;48.886;8.728;2022-12-13T01:40:44;20.83;;;10.10;;
2866;SDS011;1441;48.886;8.728;2022-12-13T01:43:14;14.40;;;8.47;;
2866;SDS011;1441;48.886;8.728;2022-12-13T01:45:41;19.37;;;9.03;;
2866;SDS011;1441;48.886;8.728;2022-12-13T01:48:09;14.83;;;8.87;;
2866;SDS011;1441;48.886;8.728;2022-12-13T01:50:42;13.73;;;8.47;;
2866;SDS011;1441;48.886;8.728;2022-12-13T01:53:13;19.07;;;9.63;;
2866;SDS011;1441;48.886;8.728;2022-12-13T01:55:42;16.40;;;9.60;;
2866;SDS011;1441;48.886;8.728;2022-12-13T01:58:11;16.97;;;8.90;;
2866;SDS011;1441;48.886;8.728;2022-12-13T02:00:38;15.73;;;9.27;;
2866;SDS011;1441;48.886;8.728;2022-12-13T02:03:04;16.10;;;9.23;;
2866;SDS011;1441;48.886;8.728;2022-12-13T02:05:31;18.20;;;10.73;;
2866;SDS011;1441;48.886;8.728;2022-12-13T02:08:01;16.37;;;8.63;;
2866;SDS011;1441;48.886;8.728;2022-12-13T02:10:29;16.30;;;9.07;;
2866;SDS011;1441;48.886;8.728;2022-12-13T02:12:56;20.17;;;9.73;;
2866;SDS011;1441;48.886;8.728;2022-12-13T02:15:23;16.50;;;10.23;;
2866;SDS011;1441;48.886;8.728;2022-12-13T02:18:11;17.53;;;9.53;;
2866;SDS011;1441;48.886;8.728;2022-12-13T02:29:09;16.00;;;8.83;;
2866;SDS011;1441;48.886;8.728;2022-12-13T02:31:52;17.03;;;9.10;;
2866;SDS011;1441;48.886;8.728;2022-12-13T02:34:25;15.77;;;9.63;;
2866;SDS011;1441;48.886;8.728;2022-12-13T02:37:07;15.70;;;8.67;;
2866;SDS011;1441;48.886;8.728;2022-12-13T02:39:42;26.50;;;10.00;;
2866;SDS011;1441;48.886;8.728;2022-12-13T02:42:15;16.90;;;9.80;;
2866;SDS011;1441;48.886;8.728;2022-12-13T02:45:07;17.90;;;9.67;;
2866;SDS011;1441;48.886;8.728;2022-12-13T02:47:40;22.00;;;11.17;;
2866;SDS011;1441;48.886;8.728;2022-12-13T02:50:08;16.80;;;9.73;;
2866;SDS011;1441;48.886;8.728;2022-12-13T02:52:36;18.93;;;9.77;;
2866;SDS011;1441;48.886;8.728;2022-12-13T02:55:06;15.80;;;9.27;;
2866;SDS011;1441;48.886;8.728;2022-12-13T03:08:21;19.40;;;10.00;;
2866;SDS011;1441;48.886;8.728;2022-12-13T03:10:51;20.27;;;10.47;;
2866;SDS011;1441;48.886;8.728;2022-12-13T03:13:40;20.13;;;10.23;;
2866;SDS011;1441;48.886;8.728;2022-12-13T03:16:18;17.60;;;9.90;;
2866;SDS011;1441;48.886;8.728;2022-12-13T03:18:58;18.40;;;10.90;;
2866;SDS011;1441;48.886;8.728;2022-12-13T03:21:25;18.90;;;10.57;;
2866;SDS011;1441;48.886;8.728;2022-12-13T03:23:51;19.57;;;9.67;;
2866;SDS011;1441;48.886;8.728;2022-12-13T03:26:18;17.20;;;9.53;;
2866;SDS011;1441;48.886;8.728;2022-12-13T03:28:45;18.90;;;10.27;;
2866;SDS011;1441;48.886;8.728;2022-12-13T03:31:11;20.60;;;10.77;;
2866;SDS011;1441;48.886;8.728;2022-12-13T03:33:36;21.20;;;10.80;;
2866;SDS011;1441;48.886;8.728;2022-12-13T03:36:05;19.80;;;10.77;;
2866;SDS011;1441;48.886;8.728;2022-12-13T03:38:31;18.93;;;11.13;;
2866;SDS011;1441;48.886;8.728;2022-12-13T03:41:01;18.73;;;10.30;;
2866;SDS011;1441;48.886;8.728;2022-12-13T03:43:29;19.70;;;10.10;;
2866;SDS011;1441;48.886;8.728;2022-12-13T03:45:54;16.47;;;10.70;;
2866;SDS011;1441;48.886;8.728;2022-12-13T03:48:20;18.80;;;9.00;;
2866;SDS011;1441;48.886;8.728;2022-12-13T03:50:47;20.40;;;10.57;;
2866;SDS011;1441;48.886;8.728;2022-12-13T03:53:13;18.40;;;10.83;;
2866;SDS011;1441;48.886;8.728;2022-12-13T03:55:39;24.97;;;10.57;;
2866;SDS011;1441;48.886;8.728;2022-12-13T03:58:04;18.57;;;10.60;;
2866;SDS011;1441;48.886;8.728;2022-12-13T04:00:30;17.87;;;10.67;;
2866;SDS011;1441;48.886;8.728;2022-12-13T04:02:55;17.70;;;10.37;;
2866;SDS011;1441;48.886;8.728;2022-12-13T04:05:21;18.20;;;10.70;;
2866;SDS011;1441;48.886;8.728;2022-12-13T04:07:47;19.73;;;10.67;;
2866;SDS011;1441;48.886;8.728;2022-12-13T04:10:12;16.60;;;10.00;;
2866;SDS011;1441;48.886;8.728;2022-12-13T04:12:38;16.37;;;8.80;;
2866;SDS011;1441;48.886;8.728;2022-12-13T04:15:22;17.83;;;9.87;;
2866;SDS011;1441;48.886;8.728;2022-12-13T04:17:48;17.77;;;10.00;;
2866;SDS011;1441;48.886;8.728;2022-12-13T04:20:13;17.57;;;9.60;;
2866;SDS011;1441;48.886;8.728;2022-12-13T04:22:39;22.43;;;9.47;;
2866;SDS011;1441;48.886;8.728;2022-12-13T04:25:05;17.47;;;9.40;;
2866;SDS011;1441;48.886;8.728;2022-12-13T04:27:31;20.00;;;9.77;;
2866;SDS011;1441;48.886;8.728;2022-12-13T04:29:56;18.33;;;10.50;;
2866;SDS011;1441;48.886;8.728;2022-12-13T04:32:22;22.23;;;10.50;;
2866;SDS011;1441;48.886;8.728;2022-12-13T04:34:47;13.63;;;8.77;;
2866;SDS011;1441;48.886;8.728;2022-12-13T04:37:13;16.13;;;9.80;;
2866;SDS011;1441;48.886;8.728;2022-12-13T04:39:39;17.40;;;8.80;;
2866;SDS011;1441;48.886;8.728;2022-12-13T04:42:04;24.70;;;12.00;;
2866;SDS011;1441;48.886;8.728;2022-12-13T04:44:30;17.90;;;10.50;;
2866;SDS011;1441;48.886;8.728;2022-12-13T04:46:56;16.87;;;9.60;;
2866;SDS011;1441;48.886;8.728;2022-12-13T04:49:21;17.97;;;8.90;;
2866;SDS011;1441;48.886;8.728;2022-12-13T04:51:47;15.97;;;9.03;;
2866;SDS011;1441;48.886;8.728;2022-12-13T04:54:12;18.87;;;9.07;;
2866;SDS011;1441;48.886;8.728;2022-12-13T04:56:38;19.83;;;9.80;;
2866;SDS011;1441;48.886;8.728;2022-12-13T04:59:04;17.07;;;9.53;;
2866;SDS011;1441;48.886;8.728;2022-12-13T05:01:29;16.53;;;9.67;;
2866;SDS011;1441;48.886;8.728;2022-12-13T05:03:55;19.20;;;9.60;;
2866;SDS011;1441;48.886;8.728;2022-12-13T05:06:20;19.57;;;10.20;;
2866;SDS011;1441;48.886;8.728;2022-12-13T05:08:46;19.17;;;9.63;;
2866;SDS011;1441;48.886;8.728;2022-12-13T05:11:12;17.13;;;9.67;;
2866;SDS011;1441;48.886;8.728;2022-12-13T05:13:37;17.47;;;9.23;;
2866;SDS011;1441;48.886;8.728;2022-12-13T05:16:04;18.27;;;9.87;;
2866;SDS011;1441;48.886;8.728;2022-12-13T05:18:32;17.80;;;10.03;;
2866;SDS011;1441;48.886;8.728;2022-12-13T05:21:05;19.03;;;9.00;;
2866;SDS011;1441;48.886;8.728;2022-12-13T05:23:33;21.53;;;10.70;;
2866;SDS011;1441;48.886;8.728;2022-12-13T05:25:58;19.17;;;9.83;;
2866;SDS011;1441;48.886;8.728;2022-12-13T05:28:24;19.27;;;10.27;;
2866;SDS011;1441;48.886;8.728;2022-12-13T05:30:53;19.57;;;9.90;;
2866;SDS011;1441;48.886;8.728;2022-12-13T05:33:21;13.73;;;8.27;;
2866;SDS011;1441;48.886;8.728;2022-12-13T05:35:47;22.63;;;10.23;;
2866;SDS011;1441;48.886;8.728;2022-12-13T05:38:13;19.53;;;10.03;;
2866;SDS011;1441;48.886;8.728;2022-12-13T05:40:39;14.93;;;8.80;;
2866;SDS011;1441;48.886;8.728;2022-12-13T05:43:05;19.27;;;9.90;;
2866;SDS011;1441;48.886;8.728;2022-12-13T05:45:31;18.20;;;9.07;;
2866;SDS011;1441;48.886;8.728;2022-12-13T05:47:57;17.37;;;8.90;;
2866;SDS011;1441;48.886;8.728;2022-12-13T05:50:23;20.53;;;9.00;;
2866;SDS011;1441;48.886;8.728;2022-12-13T05:52:49;14.17;;;8.30;;
2866;SDS011;1441;48.886;8.728;2022-12-13T05:55:14;17.47;;;9.17;;
2866;SDS011;1441;48.886;8.728;2022-12-13T05:57:40;16.10;;;7.97;;
2866;SDS011;1441;48.886;8.728;2022-12-13T06:00:07;14.10;;;8.40;;
2866;SDS011;1441;48.886;8.728;2022-12-13T06:02:37;14.47;;;7.90;;
2866;SDS011;1441;48.886;8.728;2022-12-13T06:05:04;16.20;;;8.83;;
2866;SDS011;1441;48.886;8.728;2022-12-13T06:07:31;15.70;;;8.30;;
2866;SDS011;1441;48.886;8.728;2022-12-13T06:09:56;15.90;;;7.90;;
2866;SDS011;1441;48.886;8.728;2022-12-13T06:12:22;19.03;;;7.67;;
2866;SDS011;1441;48.886;8.728;2022-12-13T06:14:48;15.93;;;8.40;;
2866;SDS011;1441;48.886;8.728;2022-12-13T06:17:14;13.90;;;7.70;;
2866;SDS011;1441;48.886;8.728;2022-12-13T06:19:39;13.10;;;7.20;;
2866;SDS011;1441;48.886;8.728;2022-12-13T06:22:05;14.80;;;8.87;;
2866;SDS011;1441;48.886;8.728;2022-12-13T06:24:30;17.70;;;8.80;;
2866;SDS011;1441;48.886;8.728;2022-12-13T06:26:56;15.00;;;8.93;;
2866;SDS011;1441;48.886;8.728;2022-12-13T06:29:24;14.20;;;7.87;;
2866;SDS011;1441;48.886;8.728;2022-12-13T06:31:53;14.23;;;7.90;;
2866;SDS011;1441;48.886;8.728;2022-12-13T06:34:23;15.03;;;7.50;;
2866;SDS011;1441;48.886;8.728;2022-12-13T06:36:48;16.53;;;8.83;;
2866;SDS011;1441;48.886;8.728;2022-12-13T06:39:14;19.00;;;9.27;;
2866;SDS011;1441;48.886;8.728;2022-12-13T06:41:39;17.80;;;7.40;;
2866;SDS011;1441;48.886;8.728;2022-12-13T06:44:05;17.63;;;8.47;;
2866;SDS011;1441;48.886;8.728;2022-12-13T06:46:31;16.30;;;8.47;;
2866;SDS011;1441;48.886;8.728;2022-12-13T06:48:57;14.50;;;8.67;;
2866;SDS011;1441;48.886;8.728;2022-12-13T06:51:23;16.00;;;8.33;;
2866;SDS011;1441;48.886;8.728;2022-12-13T06:53:48;16.50;;;8.77;;
2866;SDS011;1441;48.886;8.728;2022-12-13T06:56:14;17.03;;;10.00;;
2866;SDS011;1441;48.886;8.728;2022-12-13T06:58:40;14.70;;;8.60;;
2866;SDS011;1441;48.886;8.728;2022-12-13T07:01:08;19.07;;;9.00;;
2866;SDS011;1441;48.886;8.728;2022-12-13T07:03:35;14.10;;;7.17;;
2866;SDS011;1441;48.886;8.728;2022-12-13T07:06:05;13.80;;;8.40;;
2866;SDS011;1441;48.886;8.728;2022-12-13T07:08:32;16.23;;;8.63;;
2866;SDS011;1441;48.886;8.728;2022-12-13T07:10:59;17.70;;;8.50;;
2866;SDS011;1441;48.886;8.728;2022-12-13T07:13:25;17.00;;;9.33;;
2866;SDS011;1441;48.886;8.728;2022-12-13T07:15:51;20.73;;;9.40;;
2866;SDS011;1441;48.886;8.728;2022-12-13T07:18:17;16.43;;;8.07;;
2866;SDS011;1441;48.886;8.728;2022-12-13T07:20:43;15.30;;;8.50;;
2866;SDS011;1441;48.886;8.728;2022-12-13T07:23:09;16.80;;;9.50;;
2866;SDS011;1441;48.886;8.728;2022-12-13T07:25:35;17.10;;;9.40;;
2866;SDS011;1441;48.886;8.728;2022-12-13T07:28:02;18.53;;;9.90;;
2866;SDS011;1441;48.886;8.728;2022-12-13T07:30:30;15.80;;;8.70;;
2866;SDS011;1441;48.886;8.728;2022-12-13T07:32:57;19.23;;;10.50;;
2866;SDS011;1441;48.886;8.728;2022-12-13T07:35:24;15.00;;;9.77;;
2866;SDS011;1441;48.886;8.728;2022-12-13T07:37:50;13.37;;;8.17;;
2866;SDS011;1441;48.886;8.728;2022-12-13T07:40:15;17.43;;;9.30;;
2866;SDS011;1441;48.886;8.728;2022-12-13T07:42:47;16.30;;;8.77;;
2866;SDS011;1441;48.886;8.728;2022-12-13T07:45:17;16.13;;;9.33;;
2866;SDS011;1441;48.886;8.728;2022-12-13T07:47:43;18.47;;;9.47;;
2866;SDS011;1441;48.886;8.728;2022-12-13T07:50:09;18.97;;;10.10;;
2866;SDS011;1441;48.886;8.728;2022-12-13T07:52:35;15.93;;;10.20;;
2866;SDS011;1441;48.886;8.728;2022-12-13T07:55:01;17.50;;;9.10;;
2866;SDS011;1441;48.886;8.728;2022-12-13T07:57:28;17.93;;;9.90;;
2866;SDS011;1441;48.886;8.728;2022-12-13T07:59:54;16.90;;;9.03;;
2866;SDS011;1441;48.886;8.728;2022-12-13T08:02:19;21.63;;;10.17;;
2866;SDS011;1441;48.886;8.728;2022-12-13T08:04:45;14.37;;;8.70;;
2866;SDS011;1441;48.886;8.728;2022-12-13T08:07:10;20.40;;;10.27;;
2866;SDS011;1441;48.886;8.728;2022-12-13T08:09:36;20.10;;;11.60;;
2866;SDS011;1441;48.886;8.728;2022-12-13T08:12:02;14.70;;;9.07;;
2866;SDS011;1441;48.886;8.728;2022-12-13T08:14:29;18.93;;;9.90;;
2866;SDS011;1441;48.886;8.728;2022-12-13T08:16:55;15.73;;;9.63;;
2866;SDS011;1441;48.886;8.728;2022-12-13T08:19:21;17.63;;;9.87;;
2866;SDS011;1441;48.886;8.728;2022-12-13T08:21:47;18.50;;;9.90;;
2866;SDS011;1441;48.886;8.728;2022-12-13T08:24:12;18.03;;;9.90;;
2866;SDS011;1441;48.886;8.728;2022-12-13T08:26:38;16.73;;;9.10;;
2866;SDS011;1441;48.886;8.728;2022-12-13T08:29:04;17.13;;;9.43;;
2866;SDS011;1441;48.886;8.728;2022-12-13T08:31:29;16.70;;;10.40;;
2866;SDS011;1441;48.886;8.728;2022-12-13T08:33:56;21.83;;;9.43;;
2866;SDS011;1441;48.886;8.728;2022-12-13T08:36:21;16.50;;;9.70;;
2866;SDS011;1441;48.886;8.728;2022-12-13T08:38:48;16.87;;;10.00;;
2866;SDS011;1441;48.886;8.728;2022-12-13T08:41:18;17.90;;;9.60;;
2866;SDS011;1441;48.886;8.728;2022-12-13T08:43:44;15.70;;;9.13;;
2866;SDS011;1441;48.886;8.728;2022-12-13T08:46:09;12.63;;;8.53;;
2866;SDS011;1441;48.886;8.728;2022-12-13T08:48:35;15.53;;;9.50;;
2866;SDS011;1441;48.886;8.728;2022-12-13T08:51:01;14.67;;;8.87;;
2866;SDS011;1441;48.886;8.728;2022-12-13T08:53:27;14.90;;;8.70;;
2866;SDS011;1441;48.886;8.728;2022-12-13T08:55:53;15.90;;;8.20;;
2866;SDS011;1441;48.886;8.728;2022-12-13T08:58:23;16.80;;;8.80;;
2866;SDS011;1441;48.886;8.728;2022-12-13T09:00:48;16.07;;;8.57;;
2866;SDS011;1441;48.886;8.728;2022-12-13T09:03:14;17.53;;;9.07;;
2866;SDS011;1441;48.886;8.728;2022-12-13T09:05:40;12.33;;;7.80;;
2866;SDS011;1441;48.886;8.728;2022-12-13T09:08:06;13.77;;;9.00;;
2866;SDS011;1441;48.886;8.728;2022-12-13T09:10:32;13.60;;;7.43;;
2866;SDS011;1441;48.886;8.728;2022-12-13T09:12:57;15.80;;;8.17;;
2866;SDS011;1441;48.886;8.728;2022-12-13T09:15:25;14.10;;;7.33;;
2866;SDS011;1441;48.886;8.728;2022-12-13T09:17:51;14.60;;;7.23;;
2866;SDS011;1441;48.886;8.728;2022-12-13T09:20:17;11.60;;;7.23;;
2866;SDS011;1441;48.886;8.728;2022-12-13T09:22:43;15.07;;;8.37;;
2866;SDS011;1441;48.886;8.728;2022-12-13T09:25:08;17.70;;;8.53;;
2866;SDS011;1441;48.886;8.728;2022-12-13T09:27:34;13.43;;;7.20;;
2866;SDS011;1441;48.886;8.728;2022-12-13T09:29:59;14.90;;;7.90;;
2866;SDS011;1441;48.886;8.728;2022-12-13T09:32:25;13.47;;;8.30;;
2866;SDS011;1441;48.886;8.728;2022-12-13T09:34:52;16.80;;;8.20;;
2866;SDS011;1441;48.886;8.728;2022-12-13T09:37:18;17.03;;;8.67;;
2866;SDS011;1441;48.886;8.728;2022-12-13T09:39:43;14.77;;;8.33;;
2866;SDS011;1441;48.886;8.728;2022-12-13T09:42:18;13.30;;;7.60;;
2866;SDS011;1441;48.886;8.728;2022-12-13T09:45:08;12.80;;;7.13;;
2866;SDS011;1441;48.886;8.728;2022-12-13T09:47:41;13.00;;;6.80;;
2866;SDS011;1441;48.886;8.728;2022-12-13T09:50:28;13.10;;;7.33;;
2866;SDS011;1441;48.886;8.728;2022-12-13T09:52:59;13.93;;;6.70;;
2866;SDS011;1441;48.886;8.728;2022-12-13T09:57:54;15.27;;;8.20;;
2866;SDS011;1441;48.886;8.728;2022-12-13T10:00:22;11.73;;;7.47;;
2866;SDS011;1441;48.886;8.728;2022-12-13T10:02:53;12.00;;;7.77;;
2866;SDS011;1441;48.886;8.728;2022-12-13T10:05:28;14.47;;;8.00;;
2866;SDS011;1441;48.886;8.728;2022-12-13T10:07:54;14.50;;;8.07;;
2866;SDS011;1441;48.886;8.728;2022-12-13T10:10:23;16.63;;;8.00;;
2866;SDS011;1441;48.886;8.728;2022-12-13T10:13:09;15.23;;;7.70;;
2866;SDS011;1441;48.886;8.728;2022-12-13T10:15:47;15.60;;;9.03;;
2866;SDS011;1441;48.886;8.728;2022-12-13T10:18:20;19.57;;;9.10;;
2866;SDS011;1441;48.886;8.728;2022-12-13T10:20:56;15.40;;;8.57;;
2866;SDS011;1441;48.886;8.728;2022-12-13T10:23:23;20.73;;;9.90;;
2866;SDS011;1441;48.886;8.728;2022-12-13T10:25:52;13.70;;;7.80;;
2866;SDS011;1441;48.886;8.728;2022-12-13T10:28:29;16.93;;;8.20;;
2866;SDS011;1441;48.886;8.728;2022-12-13T10:30:57;17.97;;;8.53;;
2866;SDS011;1441;48.886;8.728;2022-12-13T10:33:26;21.90;;;8.47;;
2866;SDS011;1441;48.886;8.728;2022-12-13T10:36:02;19.80;;;8.47;;
2866;SDS011;1441;48.886;8.728;2022-12-13T10:38:30;12.87;;;7.80;;
2866;SDS011;1441;48.886;8.728;2022-12-13T10:40:58;13.67;;;8.30;;
2866;SDS011;1441;48.886;8.728;2022-12-13T10:43:24;14.00;;;7.50;;
2866;SDS011;1441;48.886;8.728;2022-12-13T10:48:20;15.27;;;7.20;;
2866;SDS011;1441;48.886;8.728;2022-12-13T10:50:59;15.07;;;8.67;;
2866;SDS011;1441;48.886;8.728;2022-12-13T10:53:31;16.30;;;8.40;;
2866;SDS011;1441;48.886;8.728;2022-12-13T10:55:59;15.50;;;8.00;;
2866;SDS011;1441;48.886;8.728;2022-12-13T10:58:33;13.53;;;8.60;;
2866;SDS011;1441;48.886;8.728;2022-12-13T11:01:07;11.87;;;7.40;;
2866;SDS011;1441;48.886;8.728;2022-12-13T11:03:58;18.13;;;8.03;;
2866;SDS011;1441;48.886;8.728;2022-12-13T11:06:46;16.70;;;8.00;;
2866;SDS011;1441;48.886;8.728;2022-12-13T11:11:57;13.63;;;7.47;;
2866;SDS011;1441;48.886;8.728;2022-12-13T11:14:30;18.73;;;7.00;;
2866;SDS011;1441;48.886;8.728;2022-12-13T11:17:07;11.90;;;6.60;;
2866;SDS011;1441;48.886;8.728;2022-12-13T11:19:39;15.17;;;7.50;;
2866;SDS011;1441;48.886;8.728;2022-12-13T11:22:23;15.87;;;7.47;;
2866;SDS011;1441;48.886;8.728;2022-12-13T11:25:39;13.47;;;7.97;;
2866;SDS011;1441;48.886;8.728;2022-12-13T11:27:54;14.40;;;8.47;;
2866;SDS011;1441;48.886;8.728;2022-12-13T11:30:42;11.70;;;7.47;;
2866;SDS011;1441;48.886;8.728;2022-12-13T11:33:16;12.57;;;6.83;;
2866;SDS011;1441;48.886;8.728;2022-12-13T11:41:16;19.50;;;8.63;;
2866;SDS011;1441;48.886;8.728;2022-12-13T11:46:47;14.93;;;9.20;;
2866;SDS011;1441;48.886;8.728;2022-12-13T11:52:15;16.43;;;9.70;;
2866;SDS011;1441;48.886;8.728;2022-12-13T11:54:55;17.10;;;9.50;;
2866;SDS011;1441;48.886;8.728;2022-12-13T11:57:51;17.17;;;9.13;;
2866;SDS011;1441;48.886;8.728;2022-12-13T12:06:11;15.80;;;8.90;;
2866;SDS011;1441;48.886;8.728;2022-12-13T12:09:00;15.00;;;8.83;;
2866;SDS011;1441;48.886;8.728;2022-12-13T12:11:34;14.93;;;8.80;;
2866;SDS011;1441;48.886;8.728;2022-12-13T12:16:45;17.10;;;8.47;;
2866;SDS011;1441;48.886;8.728;2022-12-13T12:19:24;21.07;;;10.30;;
2866;SDS011;1441;48.886;8.728;2022-12-13T12:22:07;14.80;;;8.30;;
2866;SDS011;1441;48.886;8.728;2022-12-13T12:32:32;17.80;;;8.40;;
2866;SDS011;1441;48.886;8.728;2022-12-13T12:35:24;18.43;;;10.27;;
2866;SDS011;1441;48.886;8.728;2022-12-13T12:43:39;11.77;;;7.10;;
2866;SDS011;1441;48.886;8.728;2022-12-13T12:46:11;16.50;;;9.83;;
2866;SDS011;1441;48.886;8.728;2022-12-13T12:57:23;14.30;;;7.90;;
2866;SDS011;1441;48.886;8.728;2022-12-13T13:02:38;18.07;;;8.70;;
2866;SDS011;1441;48.886;8.728;2022-12-13T13:07:48;16.90;;;8.07;;
2866;SDS011;1441;48.886;8.728;2022-12-13T13:10:20;15.97;;;8.13;;
2866;SDS011;1441;48.886;8.728;2022-12-13T13:12:46;13.77;;;8.30;;
2866;SDS011;1441;48.886;8.728;2022-12-13T13:17:57;13.13;;;8.10;;
2866;SDS011;1441;48.886;8.728;2022-12-13T13:20:24;19.30;;;8.87;;
2866;SDS011;1441;48.886;8.728;2022-12-13T13:22:54;16.33;;;7.50;;
2866;SDS011;1441;48.886;8.728;2022-12-13T13:28:10;12.30;;;7.43;;
2866;SDS011;1441;48.886;8.728;2022-12-13T13:33:47;17.80;;;7.70;;
2866;SDS011;1441;48.886;8.728;2022-12-13T13:39:13;12.53;;;7.20;;
2866;SDS011;1441;48.886;8.728;2022-12-13T13:42:19;12.63;;;7.20;;
2866;SDS011;1441;48.886;8.728;2022-12-13T13:47:16;17.73;;;7.73;;
2866;SDS011;1441;48.886;8.728;2022-12-13T13:55:58;19.03;;;7.30;;
2866;SDS011;1441;48.886;8.728;2022-12-13T14:04:51;12.10;;;7.00;;
2866;SDS011;1441;48.886;8.728;2022-12-13T14:24:19;13.30;;;7.30;;
2866;SDS011;1441;48.886;8.728;2022-12-13T14:29:45;14.90;;;8.17;;
2866;SDS011;1441;48.886;8.728;2022-12-13T14:32:20;17.03;;;7.33;;
2866;SDS011;1441;48.886;8.728;2022-12-13T14:34:48;17.33;;;7.70;;
2866;SDS011;1441;48.886;8.728;2022-12-13T14:37:51;14.47;;;8.60;;
2866;SDS011;1441;48.886;8.728;2022-12-13T14:42:51;16.53;;;7.83;;
2866;SDS011;1441;48.886;8.728;2022-12-13T14:45:21;12.90;;;7.47;;
2866;SDS011;1441;48.886;8.728;2022-12-13T14:47:55;13.40;;;7.53;;
2866;SDS011;1441;48.886;8.728;2022-12-13T14:50:23;12.30;;;7.20;;
2866;SDS011;1441;48.886;8.728;2022-12-13T14:52:50;13.40;;;6.40;;
2866;SDS011;1441;48.886;8.728;2022-12-13T14:55:35;12.80;;;6.70;;
2866;SDS011;1441;48.886;8.728;2022-12-13T14:58:03;13.43;;;6.33;;
2866;SDS011;1441;48.886;8.728;2022-12-13T15:00:42;12.23;;;6.77;;
2866;SDS011;1441;48.886;8.728;2022-12-13T15:03:10;14.13;;;7.20;;
2866;SDS011;1441;48.886;8.728;2022-12-13T15:05:46;10.47;;;7.20;;
2866;SDS011;1441;48.886;8.728;2022-12-13T15:08:16;15.37;;;7.97;;
2866;SDS011;1441;48.886;8.728;2022-12-13T15:10:52;9.70;;;6.60;;
2866;SDS011;1441;48.886;8.728;2022-12-13T15:16:08;14.20;;;7.83;;
2866;SDS011;1441;48.886;8.728;2022-12-13T15:18:42;15.13;;;7.70;;
2866;SDS011;1441;48.886;8.728;2022-12-13T15:21:21;14.73;;;7.97;;
2866;SDS011;1441;48.886;8.728;2022-12-13T15:23:48;13.37;;;7.57;;
2866;SDS011;1441;48.886;8.728;2022-12-13T15:26:22;15.23;;;8.20;;
2866;SDS011;1441;48.886;8.728;2022-12-13T15:28:52;11.70;;;7.90;;
2866;SDS011;1441;48.886;8.728;2022-12-13T15:31:19;12.63;;;7.23;;
2866;SDS011;1441;48.886;8.728;2022-12-13T15:33:45;18.83;;;9.00;;
2866;SDS011;1441;48.886;8.728;2022-12-13T15:36:24;13.20;;;8.17;;
2866;SDS011;1441;48.886;8.728;2022-12-13T15:41:21;15.97;;;8.23;;
2866;SDS011;1441;48.886;8.728;2022-12-13T15:43:50;12.87;;;8.40;;
2866;SDS011;1441;48.886;8.728;2022-12-13T15:46:31;13.33;;;7.50;;
2866;SDS011;1441;48.886;8.728;2022-12-13T15:49:02;15.63;;;7.47;;
2866;SDS011;1441;48.886;8.728;2022-12-13T15:51:30;13.57;;;7.87;;
2866;SDS011;1441;48.886;8.728;2022-12-13T15:58:56;13.77;;;7.43;;
2866;SDS011;1441;48.886;8.728;2022-12-13T16:01:26;16.27;;;8.13;;
2866;SDS011;1441;48.886;8.728;2022-12-13T16:03:53;15.97;;;8.73;;
2866;SDS011;1441;48.886;8.728;2022-12-13T16:06:19;14.50;;;8.40;;
2866;SDS011;1441;48.886;8.728;2022-12-13T16:08:48;11.67;;;6.73;;
2866;SDS011;1441;48.886;8.728;2022-12-13T16:11:24;14.60;;;7.77;;
2866;SDS011;1441;48.886;8.728;2022-12-13T16:13:53;15.10;;;7.97;;
2866;SDS011;1441;48.886;8.728;2022-12-13T16:18:55;18.10;;;9.27;;
2866;SDS011;1441;48.886;8.728;2022-12-13T16:21:22;14.70;;;8.30;;
2866;SDS011;1441;48.886;8.728;2022-12-13T16:23:49;19.20;;;8.50;;
2866;SDS011;1441;48.886;8.728;2022-12-13T16:26:22;20.20;;;8.23;;
2866;SDS011;1441;48.886;8.728;2022-12-13T16:28:50;17.43;;;8.77;;
2866;SDS011;1441;48.886;8.728;2022-12-13T16:33:50;17.70;;;8.90;;
2866;SDS011;1441;48.886;8.728;2022-12-13T16:36:16;13.67;;;7.57;;
2866;SDS011;1441;48.886;8.728;2022-12-13T16:38:42;22.13;;;9.23;;
2866;SDS011;1441;48.886;8.728;2022-12-13T16:41:07;18.63;;;8.40;;
2866;SDS011;1441;48.886;8.728;2022-12-13T16:43:34;13.57;;;7.90;;
2866;SDS011;1441;48.886;8.728;2022-12-13T16:46:03;14.63;;;8.10;;
2866;SDS011;1441;48.886;8.728;2022-12-13T16:48:29;17.37;;;8.80;;
2866;SDS011;1441;48.886;8.728;2022-12-13T16:50:55;20.60;;;9.37;;
2866;SDS011;1441;48.886;8.728;2022-12-13T16:53:21;18.47;;;8.93;;
2866;SDS011;1441;48.886;8.728;2022-12-13T16:55:48;16.30;;;8.23;;
2866;SDS011;1441;48.886;8.728;2022-12-13T16:58:14;15.97;;;8.50;;
2866;SDS011;1441;48.886;8.728;2022-12-13T17:00:41;20.03;;;8.70;;
2866;SDS011;1441;48.886;8.728;2022-12-13T17:03:08;13.93;;;8.40;;
2866;SDS011;1441;48.886;8.728;2022-12-13T17:05:36;19.70;;;9.30;;
2866;SDS011;1441;48.886;8.728;2022-12-13T17:08:05;13.67;;;8.50;;
2866;SDS011;1441;48.886;8.728;2022-12-13T17:10:31;18.37;;;9.90;;
2866;SDS011;1441;48.886;8.728;2022-12-13T17:12:56;21.10;;;8.57;;
2866;SDS011;1441;48.886;8.728;2022-12-13T17:15:22;15.97;;;8.50;;
2866;SDS011;1441;48.886;8.728;2022-12-13T17:17:48;13.10;;;7.70;;
2866;SDS011;1441;48.886;8.728;2022-12-13T17:20:15;18.63;;;8.23;;
2866;SDS011;1441;48.886;8.728;2022-12-13T17:22:43;23.20;;;9.00;;
2866;SDS011;1441;48.886;8.728;2022-12-13T17:25:09;15.37;;;9.30;;
2866;SDS011;1441;48.886;8.728;2022-12-13T17:27:36;16.47;;;8.73;;
2866;SDS011;1441;48.886;8.728;2022-12-13T17:30:03;17.33;;;9.60;;